Time;durP1;ratioP1;P1;durP2;ratioP2;P2;SDS_P1;SDS_P2;PMS_P1;PMS_P2;Temp;Humidity;BMP_temperature;BMP_pressure;BME280_temperature;BME280_humidity;BME280_pressure;Samples;Min_cycle;Max_cycle;Signal;HPM_P1;HPM_P2
2022/07/24 00:00:40;;;;;;;;;17.25;16.25;;;;;26.50;46.50;101454.97;2111914;27;47186;-67
2022/07/24 00:01:41;;;;;;;;;20.50;17.50;;;;;26.49;47.02;101445.06;2119373;27;47476;-67
2022/07/24 00:02:42;;;;;;;;;14.75;14.75;;;;;26.49;47.10;101453.22;2121497;27;47258;-69
2022/07/24 00:03:42;;;;;;;;;17.80;17.00;;;;;26.48;46.43;101453.34;2110135;27;47608;-62
2022/07/24 00:04:43;;;;;;;;;13.25;13.25;;;;;26.47;47.21;101460.66;2107650;27;47907;-67
2022/07/24 00:05:43;;;;;;;;;15.00;15.00;;;;;26.47;46.76;101454.34;2119648;27;47758;-64
2022/07/24 00:06:43;;;;;;;;;15.25;15.00;;;;;26.46;46.44;101466.22;2120021;27;47080;-66
2022/07/24 00:07:44;;;;;;;;;17.75;17.50;;;;;26.44;47.26;101460.88;2119612;27;47643;-67
2022/07/24 00:08:44;;;;;;;;;21.00;19.75;;;;;26.43;47.10;101461.00;2117832;27;47941;-68
2022/07/24 00:09:45;;;;;;;;;17.50;17.50;;;;;26.43;46.57;101455.56;2119460;27;47313;-67
2022/07/24 00:10:45;;;;;;;;;19.00;18.00;;;;;26.42;46.55;101462.84;2120641;27;47455;-67
2022/07/24 00:11:46;;;;;;;;;19.50;19.50;;;;;26.42;47.23;101459.25;2118753;27;47774;-66
2022/07/24 00:12:46;;;;;;;;;16.25;16.00;;;;;26.40;47.07;101462.09;2120510;27;47384;-66
2022/07/24 00:13:47;;;;;;;;;18.75;17.25;;;;;26.38;47.19;101456.75;2118776;27;48112;-65
2022/07/24 00:14:47;;;;;;;;;16.75;16.75;;;;;26.37;46.82;101463.19;2120656;27;46422;-65
2022/07/24 00:15:47;;;;;;;;;10.25;10.25;;;;;26.38;46.74;101466.78;2119173;27;47976;-66
2022/07/24 00:16:48;;;;;;;;;16.50;15.25;;;;;26.37;46.79;101462.31;2120845;27;48019;-65
2022/07/24 00:17:48;;;;;;;;;20.50;20.00;;;;;26.36;47.07;101463.31;2120855;27;47599;-67
2022/07/24 00:18:49;;;;;;;;;15.75;15.75;;;;;26.36;46.69;101464.19;2121708;27;47814;-67
2022/07/24 00:19:49;;;;;;;;;16.75;16.75;;;;;26.36;46.85;101468.75;2120452;27;47461;-67
2022/07/24 00:20:50;;;;;;;;;15.25;15.25;;;;;26.35;47.34;101459.69;2112994;27;48053;-67
2022/07/24 00:21:50;;;;;;;;;19.75;18.50;;;;;26.34;46.57;101462.53;2111050;27;47981;-66
2022/07/24 00:22:50;;;;;;;;;19.75;18.75;;;;;26.33;47.25;101458.94;2122159;27;49177;-67
2022/07/24 00:23:51;;;;;;;;;16.50;15.50;;;;;26.33;47.34;101460.81;2117236;27;46403;-67
2022/07/24 00:24:51;;;;;;;;;17.50;17.50;;;;;26.32;46.68;101461.78;2122159;27;47458;-66
2022/07/24 00:25:53;;;;;;;;;19.50;18.50;;;;;26.32;46.78;101462.66;2120758;27;47170;-68
2022/07/24 00:26:53;;;;;;;;;18.60;18.60;;;;;26.31;47.40;101451.91;2122784;27;47547;-65
2022/07/24 00:27:54;;;;;;;;;19.00;16.75;;;;;26.29;46.87;101462.00;2120647;27;47307;-66
2022/07/24 00:28:54;;;;;;;;;17.25;16.50;;;;;26.28;47.22;101455.69;2110735;27;47945;-66
2022/07/24 00:29:54;;;;;;;;;17.50;16.75;;;;;26.26;47.46;101462.25;2111439;27;47525;-67
2022/07/24 00:30:55;;;;;;;;;16.75;16.75;;;;;26.24;47.39;101454.19;2122420;27;48082;-66
2022/07/24 00:31:56;;;;;;;;;17.25;17.25;;;;;26.24;46.84;101456.06;2099238;28;47701;-65
2022/07/24 00:32:56;;;;;;;;;17.75;16.25;;;;;26.23;47.42;101446.16;2104104;28;47800;-66
2022/07/24 00:33:56;;;;;;;;;17.75;17.75;;;;;26.23;47.27;101460.63;2120671;27;47431;-67
2022/07/24 00:34:57;;;;;;;;;17.50;16.75;;;;;26.23;47.15;101448.88;2122062;27;47739;-67
2022/07/24 00:35:57;;;;;;;;;22.25;20.50;;;;;26.24;47.33;101456.06;2120516;27;47562;-66
2022/07/24 00:36:58;;;;;;;;;18.00;17.75;;;;;26.23;47.32;101448.88;2113012;27;47645;-67
2022/07/24 00:37:58;;;;;;;;;20.00;18.75;;;;;26.22;46.98;101448.00;2111055;27;47656;-66
2022/07/24 00:38:59;;;;;;;;;17.75;17.50;;;;;26.22;47.61;101449.88;2121444;27;47586;-66
2022/07/24 00:39:59;;;;;;;;;18.25;18.25;;;;;26.19;47.44;101437.38;2098908;27;48187;-65
2022/07/24 00:40:59;;;;;;;;;18.25;17.75;;;;;26.19;47.17;101434.66;2101029;28;47764;-67
2022/07/24 00:42:00;;;;;;;;;19.00;18.25;;;;;26.18;47.14;101437.47;2118800;27;48066;-67
2022/07/24 00:43:02;;;;;;;;;19.75;18.25;;;;;26.18;47.50;101437.47;2122261;27;47076;-65
2022/07/24 00:44:10;;;;;;;;;17.20;17.20;;;;;26.17;47.09;101433.00;2120944;27;47818;-67
2022/07/24 00:45:10;;;;;;;;;17.00;17.00;;;;;26.16;47.49;101433.97;2122214;27;47550;-65
2022/07/24 00:46:11;;;;;;;;;21.00;21.00;;;;;26.15;46.96;101427.69;2120685;27;47265;-67
2022/07/24 00:47:11;;;;;;;;;17.00;17.00;;;;;26.15;47.16;101427.69;2122360;27;47392;-66
2022/07/24 00:48:12;;;;;;;;;20.75;20.00;;;;;26.15;47.70;101424.97;2119506;27;47211;-66
2022/07/24 00:49:17;;;;;;;;;20.50;18.75;;;;;26.14;47.45;101420.50;2113093;27;47161;-66
2022/07/24 00:50:17;;;;;;;;;19.00;19.00;;;;;26.14;47.77;101423.22;2111777;27;47452;-65
2022/07/24 00:51:18;;;;;;;;;21.25;21.00;;;;;26.13;47.27;101416.06;2120501;27;47338;-67
2022/07/24 00:52:18;;;;;;;;;16.50;16.50;;;;;26.13;47.51;101407.03;2118722;27;47853;-65
2022/07/24 00:53:19;;;;;;;;;22.50;21.75;;;;;26.12;47.84;101406.16;2122505;27;47967;-65
2022/07/24 00:54:20;;;;;;;;;19.25;19.25;;;;;26.11;47.81;101410.72;2119244;27;47724;-65
2022/07/24 00:55:22;;;;;;;;;16.00;14.60;;;;;26.10;47.82;101406.28;2122499;27;47608;-67
2022/07/24 00:56:23;;;;;;;;;19.80;19.80;;;;;26.09;47.67;101412.69;2120007;27;47736;-63
2022/07/24 00:57:23;;;;;;;;;19.00;16.75;;;;;26.09;47.73;101412.69;2122276;27;47480;-64
2022/07/24 00:58:23;;;;;;;;;19.75;19.25;;;;;26.09;47.20;101409.97;2119882;27;47021;-65
2022/07/24 00:59:24;;;;;;;;;17.50;17.25;;;;;26.09;47.75;101414.56;2110945;27;47279;-66
2022/07/24 01:00:24;;;;;;;;;15.75;14.50;;;;;26.08;47.82;101410.97;2110568;27;47277;-65
2022/07/24 01:01:25;;;;;;;;;20.00;20.00;;;;;26.07;47.45;101405.66;2122222;27;47520;-66
2022/07/24 01:02:25;;;;;;;;;18.25;18.25;;;;;26.07;47.29;101411.94;2111037;27;47949;-67
2022/07/24 01:03:26;;;;;;;;;18.50;17.00;;;;;26.06;47.70;101403.91;2113157;27;47457;-67
2022/07/24 01:04:26;;;;;;;;;16.25;16.25;;;;;26.05;47.80;101394.88;2119656;27;47726;-67
2022/07/24 01:05:27;;;;;;;;;17.25;17.25;;;;;26.06;47.39;101399.34;2122245;27;47775;-67
2022/07/24 01:06:27;;;;;;;;;15.25;14.25;;;;;26.06;47.41;101402.06;2120258;27;47593;-67
2022/07/24 01:07:28;;;;;;;;;19.75;19.25;;;;;26.06;47.87;101398.47;2121949;27;47447;-66
2022/07/24 01:08:28;;;;;;;;;18.00;17.00;;;;;26.07;47.37;101397.50;2118235;27;46971;-65
2022/07/24 01:09:30;;;;;;;;;19.00;19.00;;;;;26.06;47.34;101399.34;2122170;27;45557;-65
2022/07/24 01:10:30;;;;;;;;;17.40;16.40;;;;;26.05;47.31;101389.44;2120409;27;47966;-66
2022/07/24 01:11:31;;;;;;;;;18.00;18.00;;;;;26.04;48.04;101390.44;2121631;27;47842;-67
2022/07/24 01:12:33;;;;;;;;;19.75;17.75;;;;;26.04;47.93;101395.88;2120445;27;47785;-65
2022/07/24 01:13:33;;;;;;;;;19.00;15.80;;;;;26.03;47.75;101394.09;2121059;27;47565;-67
2022/07/24 01:14:34;;;;;;;;;16.00;16.00;;;;;26.03;47.52;101399.56;2121628;27;47242;-67
2022/07/24 01:15:34;;;;;;;;;16.25;16.25;;;;;26.01;48.00;101392.50;2120980;27;46585;-64
2022/07/24 01:16:35;;;;;;;;;17.50;16.25;;;;;26.02;47.63;101396.94;2115599;27;47603;-66
2022/07/24 01:17:38;;;;;;;;;18.75;17.50;;;;;26.00;47.79;101402.50;2112830;27;47417;-65
2022/07/24 01:18:39;;;;;;;;;16.80;16.80;;;;;26.00;47.83;101399.78;2122067;27;47533;-67
2022/07/24 01:19:39;;;;;;;;;19.50;19.00;;;;;25.99;47.76;101398.06;2122153;27;47110;-65
2022/07/24 01:20:40;;;;;;;;;17.50;16.75;;;;;26.00;48.15;101407.94;2120421;27;47607;-65
2022/07/24 01:21:52;;;;;;;;;19.25;16.00;;;;;25.99;47.85;101400.78;2121773;27;46993;-64
2022/07/24 01:22:52;;;;;;;;;17.00;15.60;;;;;25.98;47.41;101399.03;2121974;27;47297;-67
2022/07/24 01:23:53;;;;;;;;;17.00;17.00;;;;;25.98;48.09;101404.47;2122295;27;47114;-65
2022/07/24 01:24:54;;;;;;;;;11.50;11.50;;;;;25.98;47.40;101407.19;2112957;27;47693;-64
2022/07/24 01:25:55;;;;;;;;;17.20;17.20;;;;;25.97;47.46;101407.31;2107333;27;47796;-66
2022/07/24 01:26:55;;;;;;;;;15.25;15.25;;;;;25.96;47.37;101406.47;2120111;27;47354;-65
2022/07/24 01:27:56;;;;;;;;;19.00;14.25;;;;;25.96;48.11;101406.47;2113248;27;47211;-65
2022/07/24 01:28:56;;;;;;;;;20.25;19.25;;;;;25.97;48.02;101413.63;2094769;28;47241;-64
2022/07/24 01:29:56;;;;;;;;;16.75;16.75;;;;;25.96;47.86;101411.03;2087209;28;47399;-65
2022/07/24 01:30:57;;;;;;;;;18.25;15.50;;;;;25.96;48.05;101408.31;2104327;28;47799;-67
2022/07/24 01:31:58;;;;;;;;;14.50;14.50;;;;;25.94;48.18;101413.88;2119600;27;47689;-66
2022/07/24 01:32:59;;;;;;;;;17.00;17.00;;;;;25.96;47.99;101413.75;2113840;27;47422;-67
2022/07/24 01:33:59;;;;;;;;;9.00;7.25;;;;;25.94;47.95;101410.28;2113254;27;47273;-67
2022/07/24 01:35:00;;;;;;;;;14.00;14.00;;;;;25.94;47.54;101407.56;2113479;27;47348;-67
2022/07/24 01:36:00;;;;;;;;;16.00;15.50;;;;;25.94;47.46;101415.72;2113372;27;47345;-67
2022/07/24 01:37:01;;;;;;;;;15.50;14.75;;;;;25.94;47.96;101411.16;2113507;27;47917;-67
2022/07/24 01:38:01;;;;;;;;;15.00;15.00;;;;;25.93;48.13;101412.13;2113631;27;47375;-64
2022/07/24 01:39:02;;;;;;;;;16.25;15.25;;;;;25.92;48.19;101415.84;2113481;27;47064;-65
2022/07/24 01:40:03;;;;;;;;;16.80;16.80;;;;;25.92;47.78;101414.94;2115955;27;47821;-66
2022/07/24 01:41:04;;;;;;;;;17.40;15.00;;;;;25.90;47.89;101408.75;2122385;27;48599;-65
2022/07/24 01:42:05;;;;;;;;;18.00;15.00;;;;;25.91;47.72;101410.47;2121745;27;45629;-67
2022/07/24 01:43:05;;;;;;;;;15.75;15.75;;;;;25.90;48.18;101406.03;2103493;28;47366;-65
2022/07/24 01:44:06;;;;;;;;;15.00;15.00;;;;;25.90;48.07;101411.47;2103703;28;47437;-68
2022/07/24 01:45:06;;;;;;;;;17.25;16.50;;;;;25.89;48.23;101409.75;2103876;28;47029;-66
2022/07/24 01:46:07;;;;;;;;;13.75;13.25;;;;;25.88;47.82;101416.16;2076705;28;47391;-66
2022/07/24 01:47:08;;;;;;;;;14.75;14.75;;;;;25.87;48.19;101415.28;2078797;28;47353;-67
2022/07/24 01:48:08;;;;;;;;;18.50;18.50;;;;;25.86;48.18;101412.69;2086744;28;47474;-64
2022/07/24 01:49:11;;;;;;;;;17.25;17.25;;;;;25.85;47.72;101409.09;2086815;28;47470;-67
2022/07/24 01:50:12;;;;;;;;;15.60;15.60;;;;;25.84;48.13;101411.94;2091840;28;47652;-67
2022/07/24 01:51:13;;;;;;;;;16.40;16.40;;;;;25.81;47.98;101413.06;2087001;28;47482;-68
2022/07/24 01:52:13;;;;;;;;;20.00;18.25;;;;;25.80;47.89;101408.59;2103993;28;47876;-67
2022/07/24 01:53:13;;;;;;;;;15.50;14.75;;;;;25.78;48.03;101405.09;2103882;28;47816;-67
2022/07/24 01:54:14;;;;;;;;;19.25;19.25;;;;;25.75;47.82;101406.19;2096758;28;47388;-67
2022/07/24 01:55:14;;;;;;;;;16.75;16.75;;;;;25.73;48.54;101408.16;2103956;28;47879;-66
2022/07/24 01:56:15;;;;;;;;;15.50;15.50;;;;;25.71;48.04;101410.13;2095433;28;47052;-67
2022/07/24 01:57:15;;;;;;;;;14.25;14.25;;;;;25.69;47.78;101409.38;2095532;28;47600;-65
2022/07/24 01:58:16;;;;;;;;;16.25;16.25;;;;;25.68;48.42;101406.75;2100555;28;47601;-66
2022/07/24 01:59:16;;;;;;;;;14.00;14.00;;;;;25.66;48.39;101404.13;2085257;28;47877;-64
2022/07/24 02:00:17;;;;;;;;;15.75;15.75;;;;;25.66;48.22;101404.13;2078615;28;47424;-67
2022/07/24 02:01:17;;;;;;;;;15.50;15.50;;;;;25.66;48.21;101405.97;2095421;28;47192;-65
2022/07/24 02:02:17;;;;;;;;;15.00;15.00;;;;;25.67;48.19;101402.31;2095515;28;46494;-66
2022/07/24 02:03:19;;;;;;;;;19.50;16.75;;;;;25.65;48.61;101404.25;2098818;28;47542;-64
2022/07/24 02:04:20;;;;;;;;;19.00;18.20;;;;;25.64;48.04;101402.50;2103672;28;47431;-68
2022/07/24 02:05:20;;;;;;;;;18.00;18.00;;;;;25.60;47.93;101399.16;2103795;28;47778;-66
2022/07/24 02:06:21;;;;;;;;;17.00;17.00;;;;;25.58;48.17;101398.41;2103759;28;46908;-68
2022/07/24 02:07:21;;;;;;;;;17.25;16.00;;;;;25.56;48.25;101399.50;2104060;28;47341;-65
2022/07/24 02:08:21;;;;;;;;;16.25;16.25;;;;;25.53;48.67;101401.44;2103853;28;47369;-65
2022/07/24 02:09:22;;;;;;;;;17.75;16.50;;;;;25.51;48.45;101400.69;2095024;28;47509;-65
2022/07/24 02:10:23;;;;;;;;;16.25;15.50;;;;;25.49;48.84;101394.50;2095416;28;47317;-64
2022/07/24 02:11:23;;;;;;;;;15.80;15.80;;;;;25.45;48.47;101394.84;2103538;28;47326;-63
2022/07/24 02:12:23;;;;;;;;;16.75;15.25;;;;;25.43;48.61;101394.97;2103794;28;47906;-66
2022/07/24 02:13:25;;;;;;;;;16.75;13.75;;;;;25.42;48.51;101395.94;2103674;28;47496;-66
2022/07/24 02:14:26;;;;;;;;;19.20;18.00;;;;;25.41;48.41;101393.31;2105560;27;47507;-68
2022/07/24 02:15:27;;;;;;;;;15.50;15.50;;;;;25.38;48.40;101394.41;2121913;27;48312;-66
2022/07/24 02:16:27;;;;;;;;;18.20;17.20;;;;;25.36;48.88;101390.09;2121630;27;47329;-63
2022/07/24 02:17:27;;;;;;;;;15.75;15.75;;;;;25.34;49.14;101398.34;2112582;27;45854;-67
2022/07/24 02:18:28;;;;;;;;;16.50;16.50;;;;;25.33;48.67;101393.03;2112823;27;47398;-64
2022/07/24 02:19:29;;;;;;;;;18.75;17.75;;;;;25.30;48.77;101388.69;2121563;27;48077;-65
2022/07/24 02:20:30;;;;;;;;;18.75;14.50;;;;;25.29;48.82;101392.41;2121889;27;47403;-63
2022/07/24 02:21:30;;;;;;;;;14.80;13.80;;;;;25.27;49.25;101398.91;2111715;27;47466;-65
2022/07/24 02:22:31;;;;;;;;;20.00;20.00;;;;;25.26;48.94;101392.59;2112048;27;47120;-66
2022/07/24 02:23:32;;;;;;;;;14.20;14.00;;;;;25.24;49.27;101389.13;2113170;27;47565;-66
2022/07/24 02:24:32;;;;;;;;;14.75;14.75;;;;;25.22;48.88;101388.38;2118716;27;47519;-65
2022/07/24 02:25:32;;;;;;;;;18.50;17.75;;;;;25.18;49.27;101390.44;2122015;27;47759;-66
2022/07/24 02:26:33;;;;;;;;;14.25;14.25;;;;;25.15;49.35;101387.06;2118321;27;47575;-65
2022/07/24 02:27:34;;;;;;;;;16.50;15.75;;;;;25.13;48.93;101389.03;2119141;27;47786;-65
2022/07/24 02:28:34;;;;;;;;;9.75;9.75;;;;;25.08;49.16;101375.78;2113210;27;47326;-65
2022/07/24 02:29:35;;;;;;;;;15.50;15.25;;;;;25.06;49.31;101382.31;2118935;27;46729;-66
2022/07/24 02:30:35;;;;;;;;;16.75;16.75;;;;;25.03;49.29;101383.41;2117817;27;48105;-64
2022/07/24 02:31:35;;;;;;;;;17.00;17.00;;;;;25.01;49.39;101379.03;2114571;27;47210;-66
2022/07/24 02:32:36;;;;;;;;;18.25;16.50;;;;;25.00;49.37;101380.00;2115578;27;47528;-65
2022/07/24 02:33:36;;;;;;;;;18.50;17.50;;;;;24.98;49.32;101373.81;2121723;27;47871;-66
2022/07/24 02:34:37;;;;;;;;;14.75;14.00;;;;;24.96;49.59;101368.50;2121440;27;47782;-65
2022/07/24 02:35:37;;;;;;;;;13.00;11.00;;;;;24.95;49.72;101373.06;2111846;27;45282;-64
2022/07/24 02:36:38;;;;;;;;;16.00;15.00;;;;;24.95;49.42;101375.78;2119028;27;47592;-65
2022/07/24 02:37:40;;;;;;;;;14.50;14.50;;;;;24.94;49.61;101368.59;2098624;28;47988;-68
2022/07/24 02:38:41;;;;;;;;;17.20;16.20;;;;;24.94;49.64;101365.03;2103810;27;47304;-67
2022/07/24 02:39:42;;;;;;;;;15.40;15.40;;;;;24.93;49.33;101368.72;2118284;27;47359;-65
2022/07/24 02:40:43;;;;;;;;;16.75;16.25;;;;;24.91;49.29;101366.13;2121261;27;47287;-67
2022/07/24 02:41:43;;;;;;;;;16.25;14.00;;;;;24.90;49.52;101369.81;2121533;27;47394;-66
2022/07/24 02:42:43;;;;;;;;;13.00;13.00;;;;;24.90;49.64;101371.63;2121548;27;47425;-66
2022/07/24 02:43:44;;;;;;;;;15.00;15.00;;;;;24.87;49.35;101363.72;2121397;27;47626;-67
2022/07/24 02:44:44;;;;;;;;;15.75;15.50;;;;;24.87;49.46;101372.72;2121372;27;47657;-63
2022/07/24 02:45:45;;;;;;;;;16.25;15.25;;;;;24.84;49.38;101367.53;2121321;27;47296;-65
2022/07/24 02:46:45;;;;;;;;;17.25;17.25;;;;;24.85;49.88;101366.53;2121646;27;47683;-62
2022/07/24 02:47:53;;;;;;;;;14.50;13.00;;;;;24.85;49.52;101365.66;2121458;27;47338;-67
2022/07/24 02:48:54;;;;;;;;;14.40;14.40;;;;;24.85;49.80;101369.25;2112263;27;48149;-64
2022/07/24 02:49:54;;;;;;;;;16.25;15.25;;;;;24.85;49.63;101357.53;2112261;27;47749;-65
2022/07/24 02:50:54;;;;;;;;;15.25;14.25;;;;;24.84;49.70;101364.81;2123001;27;46406;-68
2022/07/24 02:51:55;;;;;;;;;12.75;12.75;;;;;24.85;49.62;101365.66;2113287;27;47357;-65
2022/07/24 02:52:55;;;;;;;;;13.75;13.25;;;;;24.82;49.75;101358.63;2094637;28;47673;-64
2022/07/24 02:53:56;;;;;;;;;13.75;13.75;;;;;24.82;49.46;101358.63;2100476;28;47701;-65
2022/07/24 02:54:56;;;;;;;;;14.25;12.50;;;;;24.82;49.68;101355.03;2122529;27;47731;-63
2022/07/24 02:55:56;;;;;;;;;14.75;13.75;;;;;24.80;49.17;101352.44;2119548;27;47406;-65
2022/07/24 02:56:57;;;;;;;;;18.00;15.75;;;;;24.81;49.27;101351.44;2116592;27;47637;-66
2022/07/24 02:57:57;;;;;;;;;14.00;14.00;;;;;24.80;49.75;101357.88;2118766;27;47374;-65
2022/07/24 02:58:58;;;;;;;;;15.50;13.50;;;;;24.80;49.56;101355.16;2120738;27;47619;-66
2022/07/24 02:59:59;;;;;;;;;15.00;15.00;;;;;24.78;49.17;101342.66;2112644;27;47608;-66
2022/07/24 03:01:00;;;;;;;;;16.00;16.00;;;;;24.78;49.24;101348.09;2112879;27;47851;-65
2022/07/24 03:02:00;;;;;;;;;15.25;15.00;;;;;24.77;49.40;101352.63;2112986;27;47330;-64
2022/07/24 03:03:02;;;;;;;;;14.50;14.50;;;;;24.77;49.47;101354.47;2113199;27;47437;-67
2022/07/24 03:04:02;;;;;;;;;15.60;15.40;;;;;24.77;49.58;101347.19;2103902;28;47424;-66
2022/07/24 03:05:04;;;;;;;;;16.25;16.25;;;;;24.78;49.39;101345.38;2103812;28;48014;-66
2022/07/24 03:06:05;;;;;;;;;12.20;12.20;;;;;24.76;49.60;101348.19;2112697;27;47615;-68
2022/07/24 03:07:05;;;;;;;;;15.00;13.75;;;;;24.75;49.46;101349.16;2114010;27;47972;-67
2022/07/24 03:08:06;;;;;;;;;13.75;12.75;;;;;24.74;49.32;101344.72;2121391;27;47503;-66
2022/07/24 03:09:06;;;;;;;;;17.50;16.00;;;;;24.74;49.28;101341.13;2116363;27;47510;-65
2022/07/24 03:10:10;;;;;;;;;13.25;12.25;;;;;24.72;49.40;101341.25;2113037;27;46696;-65
2022/07/24 03:11:10;;;;;;;;;17.40;14.80;;;;;24.72;49.29;101343.09;2103965;28;47739;-65
2022/07/24 03:12:10;;;;;;;;;16.00;15.75;;;;;24.72;49.68;101341.25;2103600;27;47201;-67
2022/07/24 03:13:12;;;;;;;;;16.50;14.75;;;;;24.72;49.39;101334.94;2112863;27;47920;-68
2022/07/24 03:14:12;;;;;;;;;15.40;15.40;;;;;24.71;49.37;101336.78;2112884;27;47760;-65
2022/07/24 03:15:13;;;;;;;;;16.50;15.75;;;;;24.72;49.85;101341.25;2112576;27;47783;-68
2022/07/24 03:16:14;;;;;;;;;13.40;13.40;;;;;24.73;49.63;101339.41;2112770;27;47598;-66
2022/07/24 03:17:15;;;;;;;;;17.00;16.00;;;;;24.73;49.56;101342.97;2113162;27;47288;-66
2022/07/24 03:18:15;;;;;;;;;15.50;15.00;;;;;24.72;49.91;101333.09;2112996;27;47878;-65
2022/07/24 03:19:16;;;;;;;;;18.00;16.00;;;;;24.72;49.95;101333.09;2112860;27;47411;-68
2022/07/24 03:20:17;;;;;;;;;13.75;13.50;;;;;24.70;49.64;101329.63;2116408;27;47632;-64
2022/07/24 03:21:19;;;;;;;;;14.60;14.20;;;;;24.70;49.27;101337.78;2121148;27;47584;-68
2022/07/24 03:22:20;;;;;;;;;15.60;15.60;;;;;24.68;49.29;101339.72;2121268;27;47635;-65
2022/07/24 03:23:20;;;;;;;;;13.75;13.75;;;;;24.67;49.39;101342.56;2089359;28;48041;-64
2022/07/24 03:24:20;;;;;;;;;14.00;14.00;;;;;24.66;49.69;101338.97;2094705;28;47546;-66
2022/07/24 03:25:21;;;;;;;;;13.25;13.25;;;;;24.64;49.63;101335.47;2118177;27;47724;-68
2022/07/24 03:26:22;;;;;;;;;17.40;14.80;;;;;24.61;49.71;101333.84;2121435;27;47827;-67
2022/07/24 03:27:22;;;;;;;;;18.00;18.00;;;;;24.59;49.38;101335.81;2121399;27;47744;-67
2022/07/24 03:28:23;;;;;;;;;17.00;16.00;;;;;24.58;49.65;101338.63;2112249;27;47272;-68
2022/07/24 03:29:23;;;;;;;;;19.50;16.00;;;;;24.55;49.64;101341.56;2112315;27;47280;-67
2022/07/24 03:30:23;;;;;;;;;14.75;14.50;;;;;24.54;49.66;101343.41;2121282;27;47821;-67
2022/07/24 03:31:24;;;;;;;;;14.00;13.25;;;;;24.53;49.52;101340.81;2118923;27;47240;-68
2022/07/24 03:32:25;;;;;;;;;13.25;13.25;;;;;24.52;49.63;101342.66;2112722;27;47796;-64
2022/07/24 03:33:26;;;;;;;;;18.20;17.40;;;;;24.51;49.78;101345.47;2112866;27;46463;-65
2022/07/24 03:34:26;;;;;;;;;15.60;14.40;;;;;24.51;49.85;101343.63;2103528;27;47596;-66
2022/07/24 03:35:27;;;;;;;;;16.75;15.00;;;;;24.50;49.69;101351.88;2103590;28;47316;-66
2022/07/24 03:36:27;;;;;;;;;13.50;13.50;;;;;24.49;50.12;101351.00;2112812;27;47609;-63
2022/07/24 03:37:28;;;;;;;;;13.00;13.00;;;;;24.49;49.84;101344.69;2112659;27;47420;-65
2022/07/24 03:38:28;;;;;;;;;13.00;12.75;;;;;24.49;49.87;101353.72;2112900;27;47628;-65
2022/07/24 03:39:28;;;;;;;;;15.50;15.00;;;;;24.49;49.90;101348.28;2112544;27;47572;-65
2022/07/24 03:40:29;;;;;;;;;16.00;16.00;;;;;24.50;49.71;101341.88;2112630;27;48011;-66
2022/07/24 03:41:30;;;;;;;;;15.50;15.50;;;;;24.51;50.05;101338.19;2117663;27;46054;-65
2022/07/24 03:42:30;;;;;;;;;15.75;13.25;;;;;24.53;49.87;101344.41;2121374;27;47658;-66
2022/07/24 03:43:30;;;;;;;;;16.75;16.75;;;;;24.54;49.62;101346.13;2112277;27;47311;-67
2022/07/24 03:44:31;;;;;;;;;15.00;13.50;;;;;24.56;49.92;101351.44;2111941;27;47395;-66
2022/07/24 03:45:31;;;;;;;;;13.50;13.50;;;;;24.59;49.87;101345.81;2121284;27;47447;-63
2022/07/24 03:46:32;;;;;;;;;15.25;15.25;;;;;24.60;49.79;101347.53;2121116;27;47403;-66
2022/07/24 03:47:32;;;;;;;;;14.25;13.00;;;;;24.60;49.92;101342.97;2121126;27;47262;-66
2022/07/24 03:48:33;;;;;;;;;16.00;15.75;;;;;24.61;49.83;101343.84;2121070;27;47512;-67
2022/07/24 03:49:33;;;;;;;;;10.75;10.75;;;;;24.61;49.58;101344.72;2120879;27;47814;-65
2022/07/24 03:50:34;;;;;;;;;13.00;12.75;;;;;24.63;49.70;101341.88;2121037;27;47728;-67
2022/07/24 03:51:37;;;;;;;;;16.25;14.75;;;;;24.64;49.94;101340.91;2116521;27;47658;-65
2022/07/24 03:52:37;;;;;;;;;13.40;13.00;;;;;24.64;49.72;101343.63;2121612;27;48118;-66
2022/07/24 03:53:38;;;;;;;;;14.00;14.00;;;;;24.65;49.52;101342.66;2113901;27;47264;-66
2022/07/24 03:54:38;;;;;;;;;16.50;14.50;;;;;24.64;49.81;101349.91;2114544;27;47632;-65
2022/07/24 03:55:39;;;;;;;;;15.75;14.75;;;;;24.63;49.46;101348.19;2113382;27;47214;-67
2022/07/24 03:56:39;;;;;;;;;15.00;15.00;;;;;24.60;49.53;101337.53;2122400;27;47613;-63
2022/07/24 03:57:39;;;;;;;;;15.25;15.25;;;;;24.59;49.59;101343.09;2113227;27;48089;-66
2022/07/24 03:58:40;;;;;;;;;16.50;15.25;;;;;24.58;49.72;101344.06;2113434;27;47267;-66
2022/07/24 03:59:40;;;;;;;;;15.50;14.25;;;;;24.56;50.01;101340.59;2124958;27;47662;-64
2022/07/24 04:00:40;;;;;;;;;14.25;14.25;;;;;24.55;49.52;101342.44;2130364;27;47908;-65
2022/07/24 04:01:41;;;;;;;;;13.50;13.50;;;;;24.53;49.25;101338.97;2128922;27;47890;-65
2022/07/24 04:02:42;;;;;;;;;16.25;15.50;;;;;24.52;49.78;101339.06;2127915;27;47576;-66
2022/07/24 04:03:42;;;;;;;;;14.00;13.00;;;;;24.51;49.61;101340.91;2131819;27;45478;-64
2022/07/24 04:04:42;;;;;;;;;14.00;14.00;;;;;24.49;49.86;101340.16;2127941;27;47504;-65
2022/07/24 04:05:43;;;;;;;;;17.25;15.50;;;;;24.48;49.49;101337.53;2128042;27;47488;-67
2022/07/24 04:06:43;;;;;;;;;12.00;11.25;;;;;24.46;49.23;101348.50;2112554;27;47627;-66
2022/07/24 04:07:43;;;;;;;;;15.75;15.25;;;;;24.44;49.55;101344.16;2109883;27;47694;-68
2022/07/24 04:08:46;;;;;;;;;13.75;13.00;;;;;24.42;49.94;101346.13;2121290;27;45960;-66
2022/07/24 04:09:47;;;;;;;;;13.20;13.20;;;;;24.39;49.79;101346.31;2120727;27;47860;-67
2022/07/24 04:10:48;;;;;;;;;16.00;15.75;;;;;24.38;49.77;101336.44;2128253;27;47593;-65
2022/07/24 04:11:48;;;;;;;;;13.80;13.40;;;;;24.37;49.96;101349.13;2131252;27;47680;-66
2022/07/24 04:12:49;;;;;;;;;14.75;14.75;;;;;24.36;49.73;101345.56;2128042;27;47693;-66
2022/07/24 04:13:49;;;;;;;;;14.75;14.00;;;;;24.36;49.80;101350.13;2127969;27;47818;-63
2022/07/24 04:14:49;;;;;;;;;16.25;16.25;;;;;24.35;49.75;101349.25;2131334;27;46442;-67
2022/07/24 04:15:50;;;;;;;;;14.75;14.75;;;;;24.36;49.77;101350.13;2118376;27;47438;-65
2022/07/24 04:16:50;;;;;;;;;15.25;15.25;;;;;24.36;49.95;101344.69;2120232;27;47150;-66
2022/07/24 04:17:51;;;;;;;;;15.50;15.00;;;;;24.36;49.96;101353.69;2129040;27;47539;-66
2022/07/24 04:18:51;;;;;;;;;12.75;11.75;;;;;24.35;50.28;101343.81;2108641;27;47783;-65
2022/07/24 04:19:52;;;;;;;;;12.75;12.50;;;;;24.36;49.88;101352.81;2112909;27;47401;-66
2022/07/24 04:20:52;;;;;;;;;13.00;13.00;;;;;24.35;49.74;101357.38;2126691;27;48174;-67
2022/07/24 04:21:53;;;;;;;;;14.00;14.00;;;;;24.36;50.02;101355.53;2123151;27;47577;-66
2022/07/24 04:22:53;;;;;;;;;17.25;13.00;;;;;24.34;49.47;101352.94;2113675;27;47149;-64
2022/07/24 04:23:54;;;;;;;;;15.75;15.75;;;;;24.35;49.80;101348.38;2110157;27;47967;-66
2022/07/24 04:24:54;;;;;;;;;14.25;14.25;;;;;24.33;49.96;101358.47;2122300;27;47731;-66
2022/07/24 04:25:54;;;;;;;;;12.75;12.75;;;;;24.33;50.05;101353.06;2122489;27;47238;-66
2022/07/24 04:26:55;;;;;;;;;14.75;14.75;;;;;24.32;49.47;101351.31;2122447;27;48053;-66
2022/07/24 04:27:55;;;;;;;;;15.25;15.00;;;;;24.31;50.13;101360.44;2122488;27;46585;-65
2022/07/24 04:28:55;;;;;;;;;15.50;15.50;;;;;24.30;49.83;101355.97;2122366;27;48067;-65
2022/07/24 04:29:57;;;;;;;;;18.00;16.50;;;;;24.29;49.78;101351.50;2122207;27;47591;-66
2022/07/24 04:30:58;;;;;;;;;13.80;13.80;;;;;24.27;50.08;101351.59;2115276;27;46593;-65
2022/07/24 04:31:58;;;;;;;;;15.25;13.75;;;;;24.26;49.96;101357.09;2098471;28;47147;-64
2022/07/24 04:32:59;;;;;;;;;16.25;15.25;;;;;24.25;50.08;101356.25;2095718;28;47336;-66
2022/07/24 04:33:59;;;;;;;;;14.00;14.00;;;;;24.25;49.88;101353.53;2113378;27;47800;-63
2022/07/24 04:34:59;;;;;;;;;13.00;12.75;;;;;24.24;50.21;101354.50;2117685;27;47474;-66
2022/07/24 04:36:00;;;;;;;;;15.00;15.00;;;;;24.25;50.13;101358.97;2120095;27;47617;-67